createdAt,value
2018-05-06T08:14:04.941Z,1029.47
2018-05-06T08:15:26.776Z,1029.39
2018-05-06T08:16:48.883Z,1029.48
2018-05-06T08:18:11.076Z,1029.45
2018-05-06T08:19:33.265Z,1029.49
2018-05-06T08:20:55.077Z,1029.53
2018-05-06T08:22:16.905Z,1029.57
2018-05-06T08:23:39.146Z,1029.52
2018-05-06T08:25:01.378Z,1029.45
2018-05-06T08:26:23.659Z,1029.45
2018-05-06T08:27:46.217Z,1029.42
2018-05-06T08:29:08.792Z,1029.38
2018-05-06T08:30:31.357Z,1029.37
2018-05-06T08:31:53.620Z,1029.38
2018-05-06T08:33:15.564Z,1029.42
2018-05-06T08:34:37.817Z,1029.35
2018-05-06T08:35:59.512Z,1029.36
2018-05-06T08:37:21.731Z,1029.29
2018-05-06T08:38:44.391Z,1029.3
2018-05-06T08:40:06.823Z,1029.31
2018-05-06T08:41:29.073Z,1029.32
2018-05-06T08:42:50.720Z,1029.28
2018-05-06T08:44:12.981Z,1029.26
2018-05-06T08:45:35.577Z,1029.26
2018-05-06T08:46:58.424Z,1029.24
2018-05-06T08:48:20.681Z,1029.23
2018-05-06T08:49:43.514Z,1029.24
2018-05-06T08:51:05.748Z,1029.22
2018-05-06T08:52:27.867Z,1029.25
2018-05-06T08:53:49.820Z,1029.19
2018-05-06T08:55:12.085Z,1029.2
2018-05-06T08:56:34.682Z,1029.15
2018-05-06T08:57:56.977Z,1029.2
2018-05-06T08:59:19.191Z,1029.15
2018-05-06T09:00:41.598Z,1029.17
2018-05-06T09:02:04.182Z,1029.11
2018-05-06T09:03:26.436Z,1029.1
2018-05-06T09:04:48.494Z,1029.14
2018-05-06T09:06:10.734Z,1029.12
2018-05-06T09:07:33.037Z,1029.12
2018-05-06T09:08:55.572Z,1029.13
2018-05-06T09:10:18.142Z,1029.16
2018-05-06T09:11:40.084Z,1029.08
2018-05-06T09:13:02.034Z,1029.12
2018-05-06T09:14:24.288Z,1029.09
2018-05-06T09:15:46.555Z,1029.08
2018-05-06T09:17:08.821Z,1029.08
2018-05-06T09:18:31.392Z,1029.06
2018-05-06T09:19:53.438Z,1028.97
2018-05-06T09:21:15.813Z,1028.96
2018-05-06T09:22:38.654Z,1028.99
2018-05-06T09:24:00.908Z,1028.94
2018-05-06T09:25:23.524Z,1028.96
2018-05-06T09:26:45.549Z,1028.95
2018-05-06T09:28:08.151Z,1028.91
2018-05-06T09:29:30.682Z,1028.93
2018-05-06T09:30:52.943Z,1028.91
2018-05-06T09:32:15.537Z,1028.88
2018-05-06T09:33:37.832Z,1028.88
2018-05-06T09:35:00.091Z,1028.88
2018-05-06T09:36:22.653Z,1028.87
2018-05-06T09:37:45.072Z,1028.88
2018-05-06T09:39:07.330Z,1028.93
2018-05-06T09:40:29.581Z,1028.97
2018-05-06T09:42:23.932Z,1028.97
2018-05-06T09:43:46.482Z,1028.97
2018-05-06T09:45:08.973Z,1029.04
2018-05-06T09:46:31.217Z,1028.98
2018-05-06T09:47:53.560Z,1028.96
2018-05-06T09:49:16.216Z,1028.96
2018-05-06T09:50:38.731Z,1028.95
2018-05-06T09:52:01.297Z,1028.92
2018-05-06T09:53:23.897Z,1028.92
2018-05-06T09:54:45.806Z,1028.92
2018-05-06T09:56:08.246Z,1028.94
2018-05-06T09:57:30.499Z,1028.91
2018-05-06T09:58:53.080Z,1029
2018-05-06T10:00:15.700Z,1028.91
2018-05-06T10:01:37.889Z,1028.87
2018-05-06T10:03:00.362Z,1028.86
2018-05-06T10:04:22.586Z,1028.86
2018-05-06T10:05:45.167Z,1028.8
2018-05-06T10:07:07.412Z,1028.85
2018-05-06T10:08:29.675Z,1028.82
2018-05-06T10:09:51.944Z,1028.84
2018-05-06T10:11:14.492Z,1028.84
2018-05-06T10:12:36.709Z,1028.85
2018-05-06T10:13:58.343Z,1028.81
2018-05-06T10:15:20.584Z,1028.83
2018-05-06T10:16:42.907Z,1028.76
2018-05-06T10:18:05.161Z,1028.85
2018-05-06T10:19:27.708Z,1028.75
2018-05-06T10:20:49.920Z,1028.74
2018-05-06T10:22:12.475Z,1028.77
2018-05-06T10:23:34.759Z,1028.83
2018-05-06T10:24:57.068Z,1028.83
2018-05-06T10:26:19.046Z,1028.75
2018-05-06T10:27:41.012Z,1028.75
2018-05-06T10:29:03.657Z,1028.74
2018-05-06T10:30:25.909Z,1028.71
2018-05-06T10:31:47.918Z,1028.71
2018-05-06T10:33:09.879Z,1028.68
2018-05-06T10:34:31.844Z,1028.63
2018-05-06T10:35:53.793Z,1028.66
2018-05-06T10:37:16.044Z,1028.61
2018-05-06T10:38:38.556Z,1028.59
2018-05-06T10:40:00.778Z,1028.63
2018-05-06T10:41:22.994Z,1028.59
2018-05-06T10:42:45.655Z,1028.6
2018-05-06T10:44:08.025Z,1028.64
2018-05-06T10:45:30.679Z,1028.63
2018-05-06T10:46:52.640Z,1028.65
2018-05-06T10:48:15.154Z,1028.62
2018-05-06T10:49:37.703Z,1028.62
2018-05-06T10:51:00.437Z,1028.56
2018-05-06T10:52:22.636Z,1028.48
2018-05-06T10:53:44.283Z,1028.45
2018-05-06T10:55:06.816Z,1028.5
2018-05-06T10:56:29.281Z,1028.44
2018-05-06T10:57:51.601Z,1028.38
2018-05-06T10:59:13.566Z,1028.46
2018-05-06T11:00:36.133Z,1028.4
2018-05-06T11:01:58.413Z,1028.4
2018-05-06T11:03:20.677Z,1028.33
2018-05-06T11:04:42.575Z,1028.41
2018-05-06T11:06:04.837Z,1028.37
2018-05-06T11:07:27.404Z,1028.4
2018-05-06T11:08:49.961Z,1028.37
2018-05-06T11:10:12.281Z,1028.32
2018-05-06T11:11:34.609Z,1028.34
2018-05-06T11:12:56.870Z,1028.25
2018-05-06T11:14:19.421Z,1028.35
2018-05-06T11:15:42.015Z,1028.29
2018-05-06T11:17:03.958Z,1028.27
2018-05-06T11:18:26.190Z,1028.32
2018-05-06T11:19:48.146Z,1028.3
2018-05-06T11:21:10.673Z,1028.3
2018-05-06T11:22:33.258Z,1028.23
2018-05-06T11:23:55.207Z,1028.21
2018-05-06T11:25:17.759Z,1028.2
2018-05-06T11:26:40.558Z,1028.14
2018-05-06T11:28:02.841Z,1028.18
2018-05-06T11:29:25.104Z,1028.16
2018-05-06T11:30:47.357Z,1028.2
2018-05-06T11:32:09.898Z,1028.24
2018-05-06T11:33:32.432Z,1028.18
2018-05-06T11:34:54.454Z,1028.18
2018-05-06T11:36:16.718Z,1028.12
2018-05-06T11:37:39.243Z,1028.05
2018-05-06T11:39:01.457Z,1027.97
2018-05-06T11:40:24.000Z,1028.01
2018-05-06T11:41:46.257Z,1028.04
2018-05-06T11:43:08.172Z,1027.99
2018-05-06T11:44:30.764Z,1027.95
2018-05-06T11:45:52.723Z,1027.97
2018-05-06T11:47:14.955Z,1027.95
2018-05-06T11:48:37.208Z,1027.94
2018-05-06T11:49:59.434Z,1027.93
2018-05-06T11:51:21.985Z,1027.95
2018-05-06T11:52:44.197Z,1027.95
2018-05-06T11:54:06.477Z,1027.89
2018-05-06T11:55:29.003Z,1027.88
2018-05-06T11:56:51.637Z,1027.87
2018-05-06T11:58:13.904Z,1027.79
2018-05-06T11:59:35.861Z,1027.83
2018-05-06T12:00:58.497Z,1027.78
2018-05-06T12:02:20.502Z,1027.82
2018-05-06T12:03:42.854Z,1027.74
2018-05-06T12:05:05.120Z,1027.72
2018-05-06T12:06:27.330Z,1027.78
2018-05-06T12:07:49.837Z,1027.78
2018-05-06T12:09:12.169Z,1027.73
2018-05-06T12:10:34.432Z,1027.68
2018-05-06T12:11:56.066Z,1027.7
2018-05-06T12:13:18.621Z,1027.65
2018-05-06T12:14:41.441Z,1027.66
2018-05-06T12:16:04.037Z,1027.59
2018-05-06T12:17:26.621Z,1027.53
2018-05-06T12:18:49.214Z,1027.58
2018-05-06T12:20:11.500Z,1027.54
2018-05-06T12:21:33.717Z,1027.64
2018-05-06T12:22:56.074Z,1027.56
2018-05-06T12:24:18.633Z,1027.54
2018-05-06T12:25:41.172Z,1027.52
2018-05-06T12:27:03.700Z,1027.48
2018-05-06T12:28:25.890Z,1027.45
2018-05-06T12:29:48.463Z,1027.48
2018-05-06T12:31:11.043Z,1027.45
2018-05-06T12:32:33.608Z,1027.42
2018-05-06T12:33:56.220Z,1027.42
2018-05-06T12:35:18.802Z,1027.44
2018-05-06T12:36:41.462Z,1027.46
2018-05-06T12:38:03.735Z,1027.45
2018-05-06T12:39:25.755Z,1027.39
2018-05-06T12:40:48.095Z,1027.38
2018-05-06T12:42:10.359Z,1027.35
2018-05-06T12:43:32.700Z,1027.35
2018-05-06T12:44:54.736Z,1027.44
2018-05-06T12:46:16.991Z,1027.35
2018-05-06T12:47:39.567Z,1027.38
2018-05-06T12:49:01.833Z,1027.4
2018-05-06T12:50:24.114Z,1027.3
2018-05-06T12:51:46.341Z,1027.26
2018-05-06T12:53:08.950Z,1027.29
2018-05-06T12:54:31.537Z,1027.33
2018-05-06T12:55:53.783Z,1027.28
2018-05-06T12:57:16.018Z,1027.3
2018-05-06T12:58:38.335Z,1027.27
2018-05-06T13:00:00.343Z,1027.2
2018-05-06T13:01:22.913Z,1027.14
2018-05-06T13:02:45.074Z,1027.11
2018-05-06T13:04:07.000Z,1027.15
2018-05-06T13:05:28.667Z,1027.14
2018-05-06T13:06:51.215Z,1027.16
2018-05-06T13:08:12.836Z,1027.16
2018-05-06T13:09:34.783Z,1027.08
2018-05-06T13:10:57.349Z,1027.12
2018-05-06T13:12:19.902Z,1027.11
2018-05-06T13:13:42.447Z,1027.02
2018-05-06T13:15:04.956Z,1027.08
2018-05-06T13:16:27.212Z,1027.08
2018-05-06T13:17:49.452Z,1027.03
2018-05-06T13:19:11.675Z,1027.03
2018-05-06T13:20:34.196Z,1027.04
2018-05-06T13:21:56.752Z,1027.03
2018-05-06T13:23:19.003Z,1027.02
2018-05-06T13:24:41.265Z,1026.99
2018-05-06T13:26:03.238Z,1026.98
2018-05-06T13:27:25.790Z,1026.9
2018-05-06T13:28:48.289Z,1026.87
2018-05-06T13:30:10.244Z,1026.9
2018-05-06T13:31:32.259Z,1026.85
2018-05-06T13:32:54.203Z,1026.84
2018-05-06T13:34:16.129Z,1026.76
2018-05-06T13:35:38.702Z,1026.79
2018-05-06T13:37:00.979Z,1026.77
2018-05-06T13:38:22.994Z,1026.72
2018-05-06T13:39:44.950Z,1026.66
2018-05-06T13:41:07.191Z,1026.64
2018-05-06T13:42:29.747Z,1026.61
2018-05-06T13:43:52.285Z,1026.58
2018-05-06T13:45:14.577Z,1026.56
2018-05-06T13:46:36.819Z,1026.51
2018-05-06T13:47:58.734Z,1026.55
2018-05-06T13:49:20.976Z,1026.58
2018-05-06T13:50:43.296Z,1026.57
2018-05-06T13:52:06.090Z,1026.55
2018-05-06T13:53:28.356Z,1026.5
2018-05-06T13:54:51.268Z,1026.47
2018-05-06T13:56:13.830Z,1026.48
2018-05-06T13:57:36.337Z,1026.49
2018-05-06T13:58:58.286Z,1026.46
2018-05-06T14:00:20.565Z,1026.43
2018-05-06T14:01:43.153Z,1026.41
2018-05-06T14:03:05.425Z,1026.38
2018-05-06T14:04:27.958Z,1026.4
2018-05-06T14:05:49.888Z,1026.38
2018-05-06T14:07:12.145Z,1026.35
2018-05-06T14:08:34.413Z,1026.39
2018-05-06T14:09:56.883Z,1026.44
2018-05-06T14:11:19.135Z,1026.4
2018-05-06T14:12:41.032Z,1026.36
2018-05-06T14:14:03.870Z,1026.32
2018-05-06T14:15:25.520Z,1026.32
2018-05-06T14:16:47.737Z,1026.3
2018-05-06T14:18:10.289Z,1026.27
2018-05-06T14:19:32.573Z,1026.3
2018-05-06T14:20:54.797Z,1026.33
2018-05-06T14:22:17.615Z,1026.39
2018-05-06T14:23:40.144Z,1026.37
2018-05-06T14:25:02.407Z,1026.29
2018-05-06T14:26:24.973Z,1026.34
2018-05-06T14:27:46.899Z,1026.27
2018-05-06T14:29:08.860Z,1026.24
2018-05-06T14:30:30.820Z,1026.23
2018-05-06T14:31:53.086Z,1026.31
2018-05-06T14:33:15.045Z,1026.19
2018-05-06T14:34:36.988Z,1026.18
2018-05-06T14:35:59.274Z,1026.19
2018-05-06T14:37:21.831Z,1026.16
2018-05-06T14:38:43.752Z,1026.16
2018-05-06T14:40:06.338Z,1026.12
2018-05-06T14:41:28.924Z,1026.13
2018-05-06T14:42:51.451Z,1026.14
2018-05-06T14:44:13.768Z,1026.11
2018-05-06T14:45:36.342Z,1026.12
2018-05-06T14:46:58.912Z,1026.12
2018-05-06T14:48:21.599Z,1026.07
2018-05-06T14:49:43.561Z,1026.02
2018-05-06T14:51:05.477Z,1026.02
2018-05-06T14:52:27.432Z,1026.02
2018-05-06T14:53:49.974Z,1026.01
2018-05-06T14:55:12.564Z,1026.03
2018-05-06T14:56:34.808Z,1025.95
2018-05-06T14:57:57.401Z,1026.03
2018-05-06T14:59:19.965Z,1025.97
2018-05-06T15:00:42.804Z,1025.94
2018-05-06T15:02:04.990Z,1025.94
2018-05-06T15:03:27.254Z,1025.91
2018-05-06T15:04:49.244Z,1025.92
2018-05-06T15:08:03.136Z,1025.86
2018-05-06T15:09:25.409Z,1025.92
2018-05-06T15:10:48.027Z,1025.87
2018-05-06T15:12:10.616Z,1025.85
2018-05-06T15:13:33.175Z,1025.95
2018-05-06T15:14:55.814Z,1025.94
2018-05-06T15:16:18.076Z,1025.91
2018-05-06T15:17:40.318Z,1025.89
2018-05-06T15:19:02.830Z,1025.85
2018-05-06T15:20:25.384Z,1025.86
2018-05-06T15:21:48.199Z,1025.81
2018-05-06T15:23:10.457Z,1025.83
2018-05-06T15:24:33.002Z,1025.8
2018-05-06T15:25:55.272Z,1025.85
2018-05-06T15:27:17.781Z,1025.81
2018-05-06T15:28:39.715Z,1025.8
2018-05-06T15:30:01.976Z,1025.78
2018-05-06T15:31:24.472Z,1025.78
2018-05-06T15:32:46.758Z,1025.77
2018-05-06T15:34:08.702Z,1025.79
2018-05-06T15:35:31.280Z,1025.75
2018-05-06T15:36:53.593Z,1025.85
2018-05-06T15:38:16.206Z,1025.79
2018-05-06T15:39:38.464Z,1025.71
2018-05-06T15:41:00.767Z,1025.69
2018-05-06T15:42:23.378Z,1025.66
2018-05-06T15:43:45.939Z,1025.67
2018-05-06T15:45:08.169Z,1025.64
2018-05-06T15:46:30.483Z,1025.67
2018-05-06T15:47:52.796Z,1025.6
2018-05-06T15:49:15.076Z,1025.61
2018-05-06T15:50:37.397Z,1025.63
2018-05-06T15:51:59.722Z,1025.63
2018-05-06T15:53:22.272Z,1025.68
2018-05-06T15:54:44.799Z,1025.66
2018-05-06T15:56:07.128Z,1025.61
2018-05-06T15:57:29.689Z,1025.64
2018-05-06T15:58:52.313Z,1025.62
2018-05-06T16:00:14.886Z,1025.59
2018-05-06T16:01:36.850Z,1025.6
2018-05-06T16:02:58.807Z,1025.6
2018-05-06T16:04:20.755Z,1025.58
2018-05-06T16:05:43.337Z,1025.58
2018-05-06T16:07:05.578Z,1025.54
2018-05-06T16:08:28.176Z,1025.56
2018-05-06T16:09:50.769Z,1025.48
2018-05-06T16:11:12.698Z,1025.52
2018-05-06T16:12:35.251Z,1025.49
2018-05-06T16:13:57.789Z,1025.5
2018-05-06T16:15:20.301Z,1025.48
2018-05-06T16:16:42.821Z,1025.48
2018-05-06T16:18:05.143Z,1025.46
2018-05-06T16:19:27.688Z,1025.43
2018-05-06T16:20:50.242Z,1025.43
2018-05-06T16:22:12.509Z,1025.44
2018-05-06T16:23:35.040Z,1025.4
2018-05-06T16:24:57.338Z,1025.37
2018-05-06T16:26:19.904Z,1025.41
2018-05-06T16:27:42.653Z,1025.36
2018-05-06T16:29:04.991Z,1025.37
2018-05-06T16:30:27.221Z,1025.37
2018-05-06T16:31:49.463Z,1025.34
2018-05-06T16:33:11.402Z,1025.27
2018-05-06T16:34:33.052Z,1025.29
2018-05-06T16:35:55.289Z,1025.27
2018-05-06T16:37:17.856Z,1025.26
2018-05-06T16:38:39.758Z,1025.26
2018-05-06T16:40:01.662Z,1025.24
2018-05-06T16:41:24.006Z,1025.27
2018-05-06T16:42:46.862Z,1025.24
2018-05-06T16:44:09.417Z,1025.31
2018-05-06T16:45:32.244Z,1025.25
2018-05-06T16:46:54.987Z,1025.27
2018-05-06T16:48:17.560Z,1025.3
2018-05-06T16:49:40.122Z,1025.27
2018-05-06T16:51:02.641Z,1025.3
2018-05-06T16:52:25.157Z,1025.28
2018-05-06T16:53:47.795Z,1025.27
2018-05-06T16:55:10.360Z,1025.3
2018-05-06T16:56:32.962Z,1025.26
2018-05-06T16:57:55.608Z,1025.32
2018-05-06T16:59:17.573Z,1025.26
2018-05-06T17:00:39.792Z,1025.26
2018-05-06T17:02:02.325Z,1025.26
2018-05-06T17:03:24.564Z,1025.22
2018-05-06T17:04:47.131Z,1025.25
2018-05-06T17:06:09.434Z,1025.24
2018-05-06T17:07:32.046Z,1025.19
2018-05-06T17:08:54.305Z,1025.17
2018-05-06T17:10:16.231Z,1025.2
2018-05-06T17:11:38.761Z,1025.18
2018-05-06T17:13:01.048Z,1025.21
2018-05-06T17:14:23.670Z,1025.17
2018-05-06T17:15:45.604Z,1025.23
2018-05-06T17:17:07.886Z,1025.2
2018-05-06T17:18:30.456Z,1025.19
2018-05-06T17:19:53.052Z,1025.24
2018-05-06T17:21:15.854Z,1025.24
2018-05-06T17:22:38.086Z,1025.24
2018-05-06T17:24:00.940Z,1025.21
2018-05-06T17:25:23.524Z,1025.19
2018-05-06T17:26:45.847Z,1025.2
2018-05-06T17:28:08.439Z,1025.19
2018-05-06T17:29:30.413Z,1025.19
2018-05-06T17:30:53.049Z,1025.23
2018-05-06T17:32:15.639Z,1025.21
2018-05-06T17:33:38.283Z,1025.25
2018-05-06T17:35:00.806Z,1025.22
2018-05-06T17:36:23.062Z,1025.21
2018-05-06T17:37:45.307Z,1025.23
2018-05-06T17:39:07.866Z,1025.27
2018-05-06T17:40:30.198Z,1025.25
2018-05-06T17:41:52.854Z,1025.25
2018-05-06T17:43:15.105Z,1025.26
2018-05-06T17:44:37.428Z,1025.22
2018-05-06T17:45:59.967Z,1025.24
2018-05-06T17:47:22.251Z,1025.21
2018-05-06T17:48:44.491Z,1025.22
2018-05-06T17:50:06.829Z,1025.22
2018-05-06T17:51:29.427Z,1025.27
2018-05-06T17:52:51.383Z,1025.28
2018-05-06T17:54:13.905Z,1025.28
2018-05-06T17:55:36.554Z,1025.28
2018-05-06T17:56:58.572Z,1025.24
2018-05-06T17:58:21.082Z,1025.24
2018-05-06T17:59:43.664Z,1025.24
2018-05-06T18:01:05.587Z,1025.27
2018-05-06T18:02:27.266Z,1025.25
2018-05-06T18:03:49.862Z,1025.24
2018-05-06T18:05:12.372Z,1025.28
2018-05-06T18:06:34.949Z,1025.23
2018-05-06T18:07:57.213Z,1025.25
2018-05-06T18:09:19.447Z,1025.26
2018-05-06T18:10:42.282Z,1025.22
2018-05-06T18:12:04.863Z,1025.23
2018-05-06T18:13:27.426Z,1025.21
2018-05-06T18:14:49.677Z,1025.24
2018-05-06T18:16:11.920Z,1025.2
2018-05-06T18:17:34.506Z,1025.26
2018-05-06T18:18:56.509Z,1025.24
2018-05-06T18:20:19.128Z,1025.22
2018-05-06T18:21:41.167Z,1025.2
2018-05-06T18:23:03.970Z,1025.2
2018-05-06T18:24:26.562Z,1025.2
2018-05-06T18:25:49.241Z,1025.21
2018-05-06T18:27:11.185Z,1025.22
2018-05-06T18:28:33.734Z,1025.2
2018-05-06T18:29:56.297Z,1025.19
2018-05-06T18:31:18.869Z,1025.16
2018-05-06T18:32:41.419Z,1025.17
2018-05-06T18:34:03.689Z,1025.19
2018-05-06T18:35:25.902Z,1025.2
2018-05-06T18:36:48.467Z,1025.18
2018-05-06T18:38:11.005Z,1025.18
2018-05-06T18:39:33.271Z,1025.16
2018-05-06T18:40:56.005Z,1025.18
2018-05-06T18:42:18.625Z,1025.14
2018-05-06T18:43:41.478Z,1025.21
2018-05-06T18:45:04.084Z,1025.15
2018-05-06T18:46:26.401Z,1025.12
2018-05-06T18:47:48.422Z,1025.14
2018-05-06T18:49:11.226Z,1025.1
2018-05-06T18:50:33.513Z,1025.12
2018-05-06T18:51:55.773Z,1025.14
2018-05-06T18:53:18.033Z,1025.13
2018-05-06T18:54:40.292Z,1025.14
2018-05-06T18:56:02.222Z,1025.11
2018-05-06T18:57:23.897Z,1025.12
2018-05-06T18:58:46.474Z,1025.17
2018-05-06T19:00:09.020Z,1025.16
2018-05-06T19:01:31.535Z,1025.13
2018-05-06T19:02:54.116Z,1025.17
2018-05-06T19:04:16.373Z,1025.14
2018-05-06T19:05:38.914Z,1025.18
2018-05-06T19:07:01.128Z,1025.2
2018-05-06T19:08:23.980Z,1025.18
2018-05-06T19:09:46.028Z,1025.18
2018-05-06T19:11:07.675Z,1025.17
2018-05-06T19:12:29.994Z,1025.15
2018-05-06T19:13:52.220Z,1025.15
2018-05-06T19:15:14.464Z,1025.15
2018-05-06T19:16:36.762Z,1025.17
2018-05-06T19:17:59.301Z,1025.19
2018-05-06T19:19:21.836Z,1025.18
2018-05-06T19:20:44.377Z,1025.22
2018-05-06T19:22:06.353Z,1025.22
2018-05-06T19:23:28.951Z,1025.22
2018-05-06T19:24:51.788Z,1025.24
2018-05-06T19:26:14.040Z,1025.25
2018-05-06T19:27:36.641Z,1025.32
2018-05-06T19:28:58.867Z,1025.31
2018-05-06T19:30:21.296Z,1025.26
2018-05-06T19:31:43.953Z,1025.28
2018-05-06T19:33:05.618Z,1025.31
2018-05-06T19:34:28.243Z,1025.28
2018-05-06T19:35:50.496Z,1025.29
2018-05-06T19:37:13.004Z,1025.31
2018-05-06T19:38:35.629Z,1025.32
2018-05-06T19:39:58.203Z,1025.33
2018-05-06T19:41:20.532Z,1025.34
2018-05-06T19:42:43.106Z,1025.32
2018-05-06T19:44:05.616Z,1025.35
2018-05-06T19:45:28.146Z,1025.38
2018-05-06T19:46:49.803Z,1025.39
2018-05-06T19:48:11.750Z,1025.41
2018-05-06T19:49:34.608Z,1025.4
2018-05-06T19:50:56.843Z,1025.39
2018-05-06T19:52:19.425Z,1025.38
2018-05-06T19:53:41.932Z,1025.37
2018-05-06T19:55:03.913Z,1025.38
2018-05-06T19:56:25.860Z,1025.33
2018-05-06T19:57:48.079Z,1025.35
2018-05-06T19:59:10.940Z,1025.41
2018-05-06T20:00:33.527Z,1025.36
2018-05-06T20:01:56.524Z,1025.41
2018-05-06T20:03:18.817Z,1025.39
2018-05-06T20:04:40.790Z,1025.36
2018-05-06T20:06:03.047Z,1025.38
2018-05-06T20:07:25.651Z,1025.35
2018-05-06T20:08:48.296Z,1025.35
2018-05-06T20:10:10.916Z,1025.32
2018-05-06T20:11:33.312Z,1025.36
2018-05-06T20:12:55.998Z,1025.34
2018-05-06T20:14:18.259Z,1025.36
2018-05-06T20:15:40.794Z,1025.34
2018-05-06T20:17:03.364Z,1025.32
2018-05-06T20:18:25.931Z,1025.35
2018-05-06T20:19:48.767Z,1025.33
2018-05-06T20:21:11.037Z,1025.34
2018-05-06T20:22:33.713Z,1025.32
2018-05-06T20:23:55.641Z,1025.3
2018-05-06T20:25:17.856Z,1025.3
2018-05-06T20:26:39.815Z,1025.31
2018-05-06T20:28:02.371Z,1025.3
2018-05-06T20:29:24.933Z,1025.31
2018-05-06T20:30:47.435Z,1025.34
2018-05-06T20:32:09.344Z,1025.36
2018-05-06T20:33:31.589Z,1025.35
2018-05-06T20:34:53.777Z,1025.33
2018-05-06T20:36:15.853Z,1025.35
2018-05-06T20:37:37.759Z,1025.36
2018-05-06T20:39:00.256Z,1025.37
2018-05-06T20:40:22.720Z,1025.36
2018-05-06T20:41:45.223Z,1025.36
2018-05-06T20:43:06.827Z,1025.35
2018-05-06T20:44:29.016Z,1025.39
2018-05-06T20:45:51.199Z,1025.36
2018-05-06T20:47:13.458Z,1025.36
2018-05-06T20:48:35.639Z,1025.35
2018-05-06T20:49:58.035Z,1025.35
2018-05-06T20:51:20.150Z,1025.36
2018-05-06T20:52:42.294Z,1025.37
2018-05-06T20:54:04.489Z,1025.35
2018-05-06T20:55:26.352Z,1025.36
2018-05-06T20:56:48.395Z,1025.39
2018-05-06T20:58:10.801Z,1025.37
2018-05-06T20:59:32.604Z,1025.34
2018-05-06T21:00:54.663Z,1025.33
2018-05-06T21:02:16.711Z,1025.33
2018-05-06T21:03:39.195Z,1025.31
2018-05-06T21:05:01.066Z,1025.29
2018-05-06T21:06:23.334Z,1025.3
2018-05-06T21:07:45.649Z,1025.28
2018-05-06T21:09:07.509Z,1025.28
2018-05-06T21:10:29.098Z,1025.27
2018-05-06T21:11:51.026Z,1025.25
2018-05-06T21:13:12.311Z,1025.23
2018-05-06T21:14:34.521Z,1025.23
2018-05-06T21:15:56.626Z,1025.21
2018-05-06T21:17:18.394Z,1025.27
2018-05-06T21:18:40.232Z,1025.25
2018-05-06T21:20:01.795Z,1025.24
2018-05-06T21:21:23.615Z,1025.26
2018-05-06T21:22:45.716Z,1025.27
2018-05-06T21:24:07.548Z,1025.28
2018-05-06T21:25:29.396Z,1025.3
2018-05-06T21:26:51.494Z,1025.28
2018-05-06T21:28:13.302Z,1025.26
2018-05-06T21:29:35.642Z,1025.29
2018-05-06T21:30:57.519Z,1025.33
2018-05-06T21:32:19.728Z,1025.33
2018-05-06T21:33:41.837Z,1025.3
2018-05-06T21:35:03.683Z,1025.3
2018-05-06T21:36:25.598Z,1025.25
2018-05-06T21:37:47.709Z,1025.25
2018-05-06T21:39:09.616Z,1025.23
2018-05-06T21:40:31.879Z,1025.22
2018-05-06T21:41:54.222Z,1025.16
2018-05-06T21:43:16.051Z,1025.18
2018-05-06T21:44:37.967Z,1025.22
2018-05-06T21:46:00.368Z,1025.19
2018-05-06T21:47:22.261Z,1025.17
2018-05-06T21:48:44.333Z,1025.18
2018-05-06T21:50:06.406Z,1025.16
2018-05-06T21:51:28.499Z,1025.14
2018-05-06T21:52:50.652Z,1025.13
2018-05-06T21:54:12.858Z,1025.12
2018-05-06T21:55:34.510Z,1025.12
2018-05-06T21:56:56.319Z,1025.09
2018-05-06T21:58:18.406Z,1025.09
2018-05-06T21:59:40.476Z,1025.12
2018-05-06T22:01:02.307Z,1025.12
2018-05-06T22:02:24.405Z,1025.1
2018-05-06T22:03:46.229Z,1025.04
2018-05-06T22:05:08.063Z,1025.08
2018-05-06T22:06:30.151Z,1025.07
2018-05-06T22:07:51.714Z,1025.08
2018-05-06T22:09:13.796Z,1025.08
2018-05-06T22:10:35.880Z,1025.1
2018-05-06T22:11:58.002Z,1025.1
2018-05-06T22:13:19.823Z,1025.11
2018-05-06T22:14:41.886Z,1025.11
2018-05-06T22:16:03.703Z,1025.11
2018-05-06T22:17:25.791Z,1025.12
2018-05-06T22:18:47.635Z,1025.15
2018-05-06T22:20:09.470Z,1025.11
2018-05-06T22:21:31.284Z,1025.16
2018-05-06T22:22:53.088Z,1025.11
2018-05-06T22:24:14.654Z,1025.18
2018-05-06T22:25:36.743Z,1025.19
2018-05-06T22:26:58.570Z,1025.2
2018-05-06T22:28:20.389Z,1025.18
2018-05-06T22:29:41.943Z,1025.18
2018-05-06T22:31:04.037Z,1025.16
2018-05-06T22:32:26.130Z,1025.21
2018-05-06T22:33:48.204Z,1025.22
2018-05-06T22:35:10.385Z,1025.18
2018-05-06T22:36:32.486Z,1025.21
2018-05-06T22:37:54.579Z,1025.25
2018-05-06T22:39:15.873Z,1025.17
2018-05-06T22:40:37.708Z,1025.19
2018-05-06T22:41:59.817Z,1025.21
2018-05-06T22:43:21.904Z,1025.2
2018-05-06T22:44:43.998Z,1025.22
2018-05-06T22:46:06.062Z,1025.23
2018-05-06T22:47:27.633Z,1025.23
2018-05-06T22:48:49.718Z,1025.22
2018-05-06T22:50:11.789Z,1025.22
2018-05-06T22:51:33.865Z,1025.22
2018-05-06T22:52:55.570Z,1025.2
2018-05-06T22:54:17.635Z,1025.21
2018-05-06T22:55:39.452Z,1025.21
2018-05-06T22:57:01.269Z,1025.2
2018-05-06T22:58:23.072Z,1025.18
2018-05-06T22:59:44.908Z,1025.2
2018-05-06T23:01:06.990Z,1025.19
2018-05-06T23:02:28.839Z,1025.2
2018-05-06T23:03:50.650Z,1025.19
2018-05-06T23:05:12.466Z,1025.21
2018-05-06T23:06:34.634Z,1025.2
2018-05-06T23:07:56.456Z,1025.18
2018-05-06T23:09:18.556Z,1025.2
2018-05-06T23:10:40.365Z,1025.18
2018-05-06T23:12:02.184Z,1025.17
2018-05-06T23:13:24.261Z,1025.15
2018-05-06T23:14:45.545Z,1025.16
2018-05-06T23:16:07.613Z,1025.16
2018-05-06T23:17:29.831Z,1025.16
2018-05-06T23:18:51.442Z,1025.15
2018-05-06T23:20:13.618Z,1025.17
2018-05-06T23:21:35.737Z,1025.16
2018-05-06T23:22:57.597Z,1025.17
2018-05-06T23:24:19.153Z,1025.18
2018-05-06T23:25:40.706Z,1025.2
2018-05-06T23:27:02.260Z,1025.16
2018-05-06T23:28:24.081Z,1025.19
2018-05-06T23:29:46.331Z,1025.18
2018-05-06T23:31:08.585Z,1025.15
2018-05-06T23:32:30.401Z,1025.15
2018-05-06T23:33:52.203Z,1025.16
2018-05-06T23:35:14.292Z,1025.12
2018-05-06T23:36:36.197Z,1025.14
2018-05-06T23:37:57.997Z,1025.13
2018-05-06T23:39:20.077Z,1025.2
2018-05-06T23:40:41.946Z,1025.15
2018-05-06T23:42:03.504Z,1025.22
2018-05-06T23:43:25.575Z,1025.21
2018-05-06T23:44:47.414Z,1025.19
2018-05-06T23:46:09.275Z,1025.2
2018-05-06T23:47:31.337Z,1025.2
2018-05-06T23:48:53.144Z,1025.19
2018-05-06T23:50:15.316Z,1025.2
2018-05-06T23:51:36.854Z,1025.19
2018-05-06T23:52:58.922Z,1025.17
2018-05-06T23:54:21.084Z,1025.19
2018-05-06T23:55:42.662Z,1025.16
2018-05-06T23:57:04.463Z,1025.19
2018-05-06T23:58:26.441Z,1025.17
2018-05-06T23:59:48.651Z,1025.19
